Lancaster, New Hampshire
Current Conditions -  °F | °C
As of 5:52 PM on Thursday 18 Dec 2014 (Local Time) from KHIE Reporting Station
Overcast Overcast  
Wind Chill: 20°   Ceiling: 1400
Heat Index: 29°   Visibility: 10mi
Dew Point: 24°   Wind: 9mph
Humidity: 82%   Direction: 300°WNW
Pressure: 29.81"   Gusts: NA
Location:  44.49°N, 71.57°W
Report Text: KHIE 182252Z AUTO 30008KT 10SM OVC014 M02/M04 A2981 RMK AO2 SLP109 T10171044
Loading
Personal Weather Stations






























Interactive Weather Map New forecast layout! Learn more

10-Day Weather Forecast

Advertisements
Track Severe Weather on mobile